createdAt,value
2023-04-22T00:00:23.489Z,22.32
2023-04-22T00:02:55.215Z,22.31
2023-04-22T00:05:27.093Z,22.38
2023-04-22T00:07:59.346Z,22.35
2023-04-22T00:10:30.697Z,22.43
2023-04-22T00:13:00.309Z,22.29
2023-04-22T00:15:29.309Z,22.23
2023-04-22T00:18:00.269Z,22.32
2023-04-22T00:20:30.465Z,22.35
2023-04-22T00:23:00.054Z,22.29
2023-04-22T00:25:29.234Z,22.25
2023-04-22T00:27:58.247Z,22.34
2023-04-22T00:30:27.591Z,22.41
2023-04-22T00:32:57.420Z,22.35
2023-04-22T00:35:26.510Z,22.36
2023-04-22T00:37:55.392Z,22.30
2023-04-22T00:40:24.714Z,22.26
2023-04-22T00:42:54.000Z,22.29
2023-04-22T00:45:23.119Z,22.34
2023-04-22T00:47:53.153Z,22.41
2023-04-22T00:50:22.466Z,22.23
2023-04-22T00:52:52.876Z,22.44
2023-04-22T00:55:22.596Z,22.46
2023-04-22T00:57:59.131Z,22.57
2023-04-22T01:00:29.500Z,22.62
2023-04-22T01:02:59.626Z,22.49
2023-04-22T01:05:32.319Z,22.61
2023-04-22T01:08:02.041Z,22.35
2023-04-22T01:10:31.189Z,22.42
2023-04-22T01:13:00.111Z,22.46
2023-04-22T01:15:29.844Z,22.37
2023-04-22T01:18:00.321Z,22.40
2023-04-22T01:20:31.153Z,22.34
2023-04-22T01:23:04.105Z,22.29
2023-04-22T01:25:33.640Z,22.13
2023-04-22T01:28:04.093Z,22.17
2023-04-22T01:30:34.239Z,22.32
2023-04-22T01:33:03.447Z,22.38
2023-04-22T01:35:37.961Z,22.39
2023-04-22T01:38:09.631Z,22.57
2023-04-22T01:40:40.173Z,22.71
2023-04-22T01:43:09.420Z,22.75
2023-04-22T01:45:39.139Z,22.77
2023-04-22T01:48:08.351Z,22.85
2023-04-22T01:50:39.175Z,22.92
2023-04-22T01:53:09.700Z,22.99
2023-04-22T01:58:08.956Z,23.09
2023-04-22T02:00:37.831Z,23.25
2023-04-22T02:03:07.839Z,23.37
2023-04-22T02:05:38.251Z,23.49
2023-04-22T02:08:07.787Z,23.68
2023-04-22T02:10:39.476Z,23.64
2023-04-22T02:13:08.946Z,23.76
2023-04-22T02:15:40.529Z,23.83
2023-04-22T02:18:11.185Z,23.90
2023-04-22T02:20:40.550Z,23.92
2023-04-22T02:23:09.534Z,24.13
2023-04-22T02:25:39.491Z,24.04
2023-04-22T02:28:08.565Z,24.07
2023-04-22T02:30:38.353Z,24.13
2023-04-22T02:33:07.539Z,24.13
2023-04-22T02:35:36.765Z,24.16
2023-04-22T02:38:05.927Z,24.20
2023-04-22T02:40:34.818Z,24.30
2023-04-22T02:43:04.323Z,24.28
2023-04-22T02:45:33.352Z,24.36
2023-04-22T02:48:02.377Z,24.29
2023-04-22T02:50:32.367Z,24.56
2023-04-22T02:53:01.421Z,24.70
2023-04-22T02:55:30.527Z,24.53
2023-04-22T02:57:59.757Z,24.77
2023-04-22T03:00:29.063Z,24.87
2023-04-22T03:02:58.132Z,24.71
2023-04-22T03:05:31.630Z,24.72
2023-04-22T03:08:01.650Z,24.55
2023-04-22T03:10:31.784Z,24.69
2023-04-22T03:13:00.841Z,24.67
2023-04-22T03:15:30.063Z,24.67
2023-04-22T03:18:01.405Z,24.79
2023-04-22T03:20:30.757Z,24.95
2023-04-22T03:23:00.080Z,24.96
2023-04-22T03:25:29.919Z,25.36
2023-04-22T03:27:59.572Z,25.39
2023-04-22T03:30:28.649Z,24.88
2023-04-22T03:33:00.181Z,24.86
2023-04-22T03:35:40.096Z,25.23
2023-04-22T03:38:09.565Z,25.57
2023-04-22T03:40:39.591Z,25.72
2023-04-22T03:43:19.359Z,25.96
2023-04-22T03:45:58.657Z,26.36
2023-04-22T03:48:34.321Z,26.59
2023-04-22T03:51:05.604Z,26.67
2023-04-22T03:53:37.490Z,27.06
2023-04-22T03:56:07.528Z,26.93
2023-04-22T03:58:41.023Z,27.19
2023-04-22T04:01:10.937Z,27.42
2023-04-22T04:03:41.398Z,27.57
2023-04-22T04:06:13.329Z,27.16
2023-04-22T04:08:42.457Z,27.29
2023-04-22T04:11:12.776Z,27.53
2023-04-22T04:13:41.806Z,27.87
2023-04-22T04:16:30.955Z,28.12
2023-04-22T04:19:07.945Z,28.24
2023-04-22T04:21:39.449Z,28.38
2023-04-22T04:24:09.305Z,28.40
2023-04-22T04:26:44.388Z,28.35
2023-04-22T04:29:22.647Z,28.47
2023-04-22T04:32:02.883Z,28.57
2023-04-22T04:34:35.794Z,28.73
2023-04-22T04:37:06.922Z,28.68
2023-04-22T04:39:46.115Z,28.58
2023-04-22T04:42:16.325Z,28.78
2023-04-22T04:44:54.918Z,28.90
2023-04-22T04:47:25.992Z,28.65
2023-04-22T04:50:01.518Z,28.81
2023-04-22T04:52:30.578Z,28.74
2023-04-22T04:54:59.867Z,28.69
2023-04-22T04:57:29.334Z,29.20
2023-04-22T04:59:58.415Z,29.02
2023-04-22T05:02:28.737Z,29.01
2023-04-22T05:04:58.823Z,29.02
2023-04-22T05:07:28.809Z,28.91
2023-04-22T05:09:59.089Z,29.31
2023-04-22T05:12:28.963Z,29.34
2023-04-22T05:14:58.789Z,29.31
2023-04-22T05:17:31.685Z,29.70
2023-04-22T05:20:00.775Z,29.57
2023-04-22T05:22:30.375Z,29.71
2023-04-22T05:25:00.132Z,29.37
2023-04-22T05:27:29.538Z,29.38
2023-04-22T05:29:58.462Z,29.48
2023-04-22T05:32:32.121Z,29.41
2023-04-22T05:35:01.550Z,29.14
2023-04-22T05:37:30.565Z,29.06
2023-04-22T05:39:59.910Z,28.84
2023-04-22T05:42:29.139Z,29.01
2023-04-22T05:44:58.495Z,29.31
2023-04-22T05:47:27.599Z,29.02
2023-04-22T05:49:57.834Z,28.62
2023-04-22T05:52:46.045Z,28.58
2023-04-22T05:55:17.783Z,28.84
2023-04-22T05:57:47.490Z,28.99
2023-04-22T06:00:34.846Z,28.76
2023-04-22T06:03:36.509Z,28.69
2023-04-22T06:06:06.485Z,28.69
2023-04-22T06:08:35.541Z,28.45
2023-04-22T06:11:04.668Z,28.40
2023-04-22T06:13:36.509Z,28.63
2023-04-22T06:18:44.441Z,28.71
2023-04-22T06:21:14.322Z,28.60
2023-04-22T06:23:44.077Z,28.34
2023-04-22T06:26:13.755Z,28.48
2023-04-22T06:28:42.838Z,28.60
2023-04-22T06:31:21.044Z,28.62
2023-04-22T06:38:13.359Z,29.07
2023-04-22T06:40:55.115Z,29.03
2023-04-22T06:43:30.692Z,29.50
2023-04-22T06:46:18.805Z,29.62
2023-04-22T06:49:10.786Z,29.72
2023-04-22T06:52:06.531Z,30.04
2023-04-22T06:54:36.919Z,29.72
2023-04-22T06:57:06.063Z,29.81
2023-04-22T06:59:35.166Z,29.93
2023-04-22T07:02:04.950Z,30.07
2023-04-22T07:04:38.471Z,29.92
2023-04-22T07:07:08.566Z,30.08
2023-04-22T07:09:38.184Z,30.56
2023-04-22T07:12:07.655Z,30.49
2023-04-22T07:14:36.802Z,30.68
2023-04-22T07:17:05.894Z,30.57
2023-04-22T07:19:35.422Z,30.59
2023-04-22T07:22:04.595Z,30.50
2023-04-22T07:24:34.057Z,30.45
2023-04-22T07:27:03.569Z,30.68
2023-04-22T07:29:32.917Z,30.74
2023-04-22T07:32:01.902Z,31.08
2023-04-22T07:34:30.958Z,30.93
2023-04-22T07:37:00.308Z,31.36
2023-04-22T07:39:29.165Z,31.43
2023-04-22T07:41:58.311Z,31.96
2023-04-22T07:44:28.103Z,32.13
2023-04-22T07:46:57.032Z,32.18
2023-04-22T07:49:30.158Z,32.08
2023-04-22T07:51:59.158Z,31.71
2023-04-22T07:54:27.925Z,32.34
2023-04-22T07:56:58.317Z,32.59
2023-04-22T07:59:27.350Z,32.85
2023-04-22T08:01:55.938Z,32.66
2023-04-22T08:04:25.404Z,32.86
2023-04-22T08:06:55.719Z,32.78
2023-04-22T08:09:24.780Z,32.64
2023-04-22T08:11:55.541Z,32.75
2023-04-22T08:14:24.596Z,33.05
2023-04-22T08:16:53.610Z,33.29
2023-04-22T08:19:22.518Z,33.21
2023-04-22T08:21:52.730Z,33.28
2023-04-22T08:24:22.899Z,32.66
2023-04-22T08:26:51.733Z,33.02
2023-04-22T08:29:20.584Z,32.95
2023-04-22T08:31:49.182Z,33.10
2023-04-22T08:34:18.233Z,33.24
2023-04-22T08:36:46.997Z,32.97
2023-04-22T08:39:15.981Z,33.03
2023-04-22T08:41:46.927Z,33.23
2023-04-22T08:44:17.063Z,33.19
2023-04-22T08:46:50.139Z,32.84
2023-04-22T08:49:20.357Z,32.77
2023-04-22T08:51:51.510Z,32.96
2023-04-22T08:54:20.315Z,33.16
2023-04-22T08:56:52.491Z,33.20
2023-04-22T08:59:23.672Z,33.02
2023-04-22T09:01:55.229Z,32.58
2023-04-22T09:04:24.327Z,32.30
2023-04-22T09:06:53.182Z,32.55
2023-04-22T09:09:22.613Z,33.01
2023-04-22T09:11:51.350Z,33.06
2023-04-22T09:14:21.029Z,33.22
2023-04-22T09:16:51.063Z,32.91
2023-04-22T09:19:20.191Z,33.19
2023-04-22T09:21:51.427Z,33.10
2023-04-22T09:24:22.275Z,32.69
2023-04-22T09:26:51.423Z,32.97
2023-04-22T09:29:20.283Z,33.05
2023-04-22T09:31:53.025Z,33.34
2023-04-22T09:34:23.174Z,33.07
2023-04-22T09:36:53.217Z,32.79
2023-04-22T09:39:22.311Z,32.49
2023-04-22T09:41:57.632Z,32.80
2023-04-22T09:44:29.333Z,32.73
2023-04-22T09:46:58.366Z,32.98
2023-04-22T09:49:29.051Z,32.77
2023-04-22T09:52:00.878Z,32.84
2023-04-22T09:54:29.762Z,32.53
2023-04-22T09:56:58.634Z,32.11
2023-04-22T09:59:31.478Z,32.38
2023-04-22T10:02:04.832Z,32.67
2023-04-22T10:04:33.964Z,32.58
2023-04-22T10:07:05.506Z,32.38
2023-04-22T10:09:34.518Z,32.41
2023-04-22T10:12:04.350Z,32.51
2023-04-22T10:14:33.139Z,32.29
2023-04-22T10:17:05.119Z,32.52
2023-04-22T10:19:36.348Z,32.45
2023-04-22T10:22:06.188Z,32.46
2023-04-22T10:24:38.658Z,32.53
2023-04-22T10:27:09.254Z,32.66
2023-04-22T10:29:40.985Z,32.53
2023-04-22T10:32:19.346Z,32.45
2023-04-22T10:34:49.492Z,32.15
2023-04-22T10:37:22.715Z,32.21
2023-04-22T10:40:09.914Z,32.46
2023-04-22T10:42:43.579Z,32.58
2023-04-22T10:45:16.722Z,32.51
2023-04-22T10:47:46.069Z,32.41
2023-04-22T10:50:28.724Z,32.26
2023-04-22T10:53:21.493Z,32.23
2023-04-22T10:55:55.158Z,32.27
2023-04-22T10:58:26.315Z,32.21
2023-04-22T11:01:01.032Z,32.49
2023-04-22T11:03:31.732Z,32.48
2023-04-22T11:06:18.827Z,31.98
2023-04-22T11:08:49.352Z,32.03
2023-04-22T11:11:19.855Z,32.24
2023-04-22T11:13:51.826Z,31.93
2023-04-22T11:16:23.539Z,32.14
2023-04-22T11:18:53.558Z,32.39
2023-04-22T11:21:22.685Z,32.08
2023-04-22T11:23:53.836Z,32.27
2023-04-22T11:26:36.339Z,32.55
2023-04-22T11:29:05.101Z,32.50
2023-04-22T11:31:33.789Z,32.44
2023-04-22T11:34:02.781Z,32.38
2023-04-22T11:36:32.609Z,32.37
2023-04-22T11:39:01.965Z,32.50
2023-04-22T11:41:32.042Z,32.66
2023-04-22T11:44:02.732Z,32.66
2023-04-22T11:46:39.139Z,32.61
2023-04-22T11:49:15.564Z,32.69
2023-04-22T11:51:59.102Z,32.86
2023-04-22T11:54:34.984Z,32.89
2023-04-22T11:57:16.620Z,33.04
2023-04-22T11:59:45.657Z,32.81
2023-04-22T12:02:14.762Z,32.85
2023-04-22T12:04:45.152Z,32.95
2023-04-22T12:07:14.228Z,32.67
2023-04-22T12:09:43.013Z,32.64
2023-04-22T12:12:12.105Z,32.52
2023-04-22T12:14:40.905Z,32.35
2023-04-22T12:17:13.098Z,32.29
2023-04-22T12:19:42.330Z,32.32
2023-04-22T12:22:11.313Z,32.24
2023-04-22T12:24:47.410Z,31.97
2023-04-22T12:27:16.546Z,32.06
2023-04-22T12:29:54.181Z,32.00
2023-04-22T12:32:24.977Z,32.08
2023-04-22T12:34:54.661Z,32.10
2023-04-22T12:37:23.353Z,31.91
2023-04-22T12:39:52.473Z,31.88
2023-04-22T12:42:21.631Z,31.83
2023-04-22T12:44:50.492Z,31.74
2023-04-22T12:47:19.454Z,31.46
2023-04-22T12:49:48.627Z,31.53
2023-04-22T12:52:17.640Z,31.46
2023-04-22T12:54:46.646Z,31.40
2023-04-22T12:57:16.343Z,31.34
2023-04-22T12:59:46.169Z,31.28
2023-04-22T13:02:15.140Z,31.31
2023-04-22T13:04:44.449Z,31.21
2023-04-22T13:07:13.394Z,31.21
2023-04-22T13:09:43.037Z,31.05
2023-04-22T13:12:12.094Z,30.91
2023-04-22T13:14:41.076Z,30.93
2023-04-22T13:17:09.970Z,30.91
2023-04-22T13:19:38.811Z,30.86
2023-04-22T13:22:08.084Z,30.79
2023-04-22T13:24:36.974Z,30.71
2023-04-22T13:27:07.682Z,30.65
2023-04-22T13:29:37.398Z,30.62
2023-04-22T13:32:06.919Z,30.59
2023-04-22T13:34:36.524Z,30.54
2023-04-22T13:37:05.657Z,30.46
2023-04-22T13:39:34.434Z,30.31
2023-04-22T13:46:27.645Z,29.82
2023-04-22T13:48:57.638Z,29.79
2023-04-22T13:51:26.819Z,29.72
2023-04-22T13:53:55.958Z,29.63
2023-04-22T13:56:29.137Z,29.65
2023-04-22T13:58:59.101Z,29.54
2023-04-22T14:01:28.412Z,29.33
2023-04-22T14:03:58.302Z,29.35
2023-04-22T14:06:28.098Z,29.29
2023-04-22T14:08:58.078Z,29.15
2023-04-22T14:11:27.187Z,29.18
2023-04-22T14:13:56.094Z,29.09
2023-04-22T14:16:25.848Z,29.08
2023-04-22T14:18:56.238Z,28.93
2023-04-22T14:21:27.721Z,28.89
2023-04-22T14:23:57.562Z,28.74
2023-04-22T14:26:26.811Z,28.41
2023-04-22T14:28:55.886Z,28.63
2023-04-22T14:31:25.413Z,28.57
2023-04-22T14:38:17.883Z,28.42
2023-04-22T14:40:47.583Z,28.40
2023-04-22T14:43:17.906Z,28.18
2023-04-22T14:45:48.232Z,28.08
2023-04-22T14:48:17.502Z,27.97
2023-04-22T14:50:46.625Z,28.17
2023-04-22T14:53:16.238Z,27.84
2023-04-22T14:55:45.346Z,28.08
2023-04-22T14:58:14.606Z,27.75
2023-04-22T15:00:43.611Z,27.59
2023-04-22T15:03:12.967Z,27.61
2023-04-22T15:05:42.244Z,27.85
2023-04-22T15:08:11.284Z,27.91
2023-04-22T15:10:40.293Z,27.73
2023-04-22T15:13:09.539Z,27.53
2023-04-22T15:15:39.020Z,27.45
2023-04-22T15:18:07.993Z,27.00
2023-04-22T15:20:37.374Z,27.11
2023-04-22T15:23:06.533Z,26.78
2023-04-22T15:26:24.892Z,27.08
2023-04-22T15:28:53.925Z,26.74
2023-04-22T15:31:23.619Z,26.56
2023-04-22T15:33:53.130Z,26.27
2023-04-22T15:36:22.659Z,26.51
2023-04-22T15:38:59.732Z,26.41
2023-04-22T15:41:29.490Z,26.27
2023-04-22T15:43:58.522Z,26.26
2023-04-22T15:46:31.303Z,26.19
2023-04-22T15:49:01.567Z,26.10
2023-04-22T15:51:32.463Z,26.00
2023-04-22T15:54:02.045Z,26.01
2023-04-22T15:56:31.293Z,26.03
2023-04-22T15:59:00.280Z,26.15
2023-04-22T16:01:29.335Z,25.92
2023-04-22T16:03:58.936Z,26.01
2023-04-22T16:06:28.236Z,25.86
2023-04-22T16:08:58.643Z,25.60
2023-04-22T16:11:28.142Z,25.70
2023-04-22T16:13:57.184Z,25.84
2023-04-22T16:16:28.202Z,25.92
2023-04-22T16:18:57.387Z,26.08
2023-04-22T16:21:26.518Z,26.13
2023-04-22T16:23:55.482Z,26.06
2023-04-22T16:26:24.469Z,25.94
2023-04-22T16:28:53.917Z,25.86
2023-04-22T16:31:26.457Z,25.92
2023-04-22T16:33:56.897Z,25.77
2023-04-22T16:36:26.017Z,25.78
2023-04-22T16:38:55.076Z,25.67
2023-04-22T16:41:24.063Z,25.66
2023-04-22T16:43:53.245Z,25.69
2023-04-22T16:46:22.404Z,25.73
2023-04-22T16:48:51.607Z,25.71
2023-04-22T16:51:20.917Z,25.67
2023-04-22T16:53:49.901Z,25.55
2023-04-22T16:56:18.646Z,25.64
2023-04-22T16:58:47.805Z,25.63
2023-04-22T17:01:16.786Z,25.66
2023-04-22T17:03:45.963Z,25.63
2023-04-22T17:06:15.062Z,25.63
2023-04-22T17:08:44.021Z,25.65
2023-04-22T17:11:13.189Z,25.54
2023-04-22T17:13:42.238Z,25.42
2023-04-22T17:16:12.103Z,25.59
2023-04-22T17:18:41.745Z,25.59
2023-04-22T17:21:10.681Z,25.42
2023-04-22T17:23:40.055Z,25.54
2023-04-22T17:26:09.195Z,25.48
2023-04-22T17:28:38.206Z,25.48
2023-04-22T17:31:07.552Z,25.52
2023-04-22T17:33:41.124Z,25.32
2023-04-22T17:36:10.583Z,25.34
2023-04-22T17:38:39.379Z,25.41
2023-04-22T17:41:09.460Z,25.33
2023-04-22T17:43:38.524Z,25.32
2023-04-22T17:46:09.126Z,25.27
2023-04-22T17:48:38.802Z,25.11
2023-04-22T17:51:07.809Z,25.10
2023-04-22T17:53:38.593Z,25.15
2023-04-22T17:56:07.731Z,25.18
2023-04-22T17:58:39.958Z,25.11
2023-04-22T18:01:09.868Z,25.07
2023-04-22T18:03:39.133Z,25.08
2023-04-22T18:06:08.500Z,24.96
2023-04-22T18:08:37.650Z,24.95
2023-04-22T18:11:06.880Z,24.97
2023-04-22T18:13:36.814Z,24.85
2023-04-22T18:16:05.985Z,24.92
2023-04-22T18:18:36.487Z,24.93
2023-04-22T18:21:05.625Z,24.98
2023-04-22T18:23:36.030Z,24.95
2023-04-22T18:26:10.810Z,24.93
2023-04-22T18:28:44.534Z,24.91
2023-04-22T18:31:13.874Z,24.92
2023-04-22T18:33:42.740Z,24.89
2023-04-22T18:36:12.072Z,24.90
2023-04-22T18:38:41.546Z,24.96
2023-04-22T18:41:11.940Z,24.80
2023-04-22T18:43:41.930Z,24.51
2023-04-22T18:46:10.911Z,24.47
2023-04-22T18:48:39.874Z,24.64
2023-04-22T18:51:09.414Z,24.61
2023-04-22T18:53:38.488Z,24.42
2023-04-22T18:56:07.943Z,24.61
2023-04-22T18:58:36.998Z,24.37
2023-04-22T19:01:06.895Z,24.25
2023-04-22T19:03:36.460Z,24.14
2023-04-22T19:06:05.940Z,24.09
2023-04-22T19:08:35.460Z,23.98
2023-04-22T19:11:04.356Z,24.23
2023-04-22T19:13:33.709Z,24.24
2023-04-22T19:16:02.553Z,24.09
2023-04-22T19:18:31.952Z,23.88
2023-04-22T19:21:00.868Z,24.07
2023-04-22T19:23:30.619Z,24.11
2023-04-22T19:26:00.379Z,24.13
2023-04-22T19:28:29.716Z,24.07
2023-04-22T19:31:01.244Z,24.04
2023-04-22T19:33:30.774Z,24.04
2023-04-22T19:35:59.528Z,24.17
2023-04-22T19:38:28.787Z,24.16
2023-04-22T19:40:58.219Z,24.00
2023-04-22T19:43:27.728Z,23.85
2023-04-22T19:45:57.580Z,23.83
2023-04-22T19:48:26.818Z,23.87
2023-04-22T19:50:56.138Z,23.78
2023-04-22T19:53:26.677Z,23.87
2023-04-22T19:55:55.927Z,23.76
2023-04-22T19:58:24.983Z,23.80
2023-04-22T20:00:55.696Z,23.82
2023-04-22T20:03:26.746Z,23.87
2023-04-22T20:05:57.493Z,23.78
2023-04-22T20:08:29.601Z,23.83
2023-04-22T20:11:02.109Z,23.75
2023-04-22T20:13:34.480Z,23.73
2023-04-22T20:16:05.359Z,23.64
2023-04-22T20:18:34.916Z,23.39
2023-04-22T20:21:05.610Z,23.17
2023-04-22T20:23:35.968Z,23.00
2023-04-22T20:26:06.753Z,23.18
2023-04-22T20:28:47.631Z,23.36
2023-04-22T20:31:25.267Z,23.23
2023-04-22T20:33:57.062Z,23.13
2023-04-22T20:36:30.567Z,23.19
2023-04-22T20:39:07.343Z,23.17
2023-04-22T20:41:44.044Z,23.06
2023-04-22T20:44:15.880Z,22.73
2023-04-22T20:46:48.613Z,22.59
2023-04-22T20:49:20.381Z,22.52
2023-04-22T20:51:54.119Z,22.57
2023-04-22T20:54:29.116Z,22.42
2023-04-22T20:57:02.157Z,22.04
2023-04-22T20:59:35.587Z,21.95
2023-04-22T21:02:09.277Z,22.20
2023-04-22T21:04:43.649Z,22.28
2023-04-22T21:07:18.647Z,22.34
2023-04-22T21:09:51.465Z,22.43
2023-04-22T21:12:25.082Z,22.42
2023-04-22T21:14:58.638Z,22.22
2023-04-22T21:17:34.957Z,22.31
2023-04-22T21:20:08.113Z,22.24
2023-04-22T21:22:42.434Z,21.98
2023-04-22T21:25:24.171Z,22.14
2023-04-22T21:27:56.982Z,22.14
2023-04-22T21:30:29.696Z,21.74
2023-04-22T21:33:02.279Z,21.94
2023-04-22T21:35:33.379Z,22.15
2023-04-22T21:38:06.112Z,22.00
2023-04-22T21:40:37.953Z,21.87
2023-04-22T21:43:09.965Z,21.78
2023-04-22T21:45:42.072Z,21.86
2023-04-22T21:48:14.771Z,21.73
2023-04-22T21:50:48.068Z,21.70
2023-04-22T21:53:21.680Z,21.68
2023-04-22T21:55:54.465Z,21.63
2023-04-22T21:58:27.036Z,21.65
2023-04-22T22:01:00.656Z,21.60
2023-04-22T22:03:34.424Z,21.59
2023-04-22T22:06:06.761Z,21.56
2023-04-22T22:08:41.190Z,21.53
2023-04-22T22:11:27.680Z,21.41
2023-04-22T22:14:02.952Z,21.48
2023-04-22T22:16:35.611Z,21.58
2023-04-22T22:19:08.331Z,21.47
2023-04-22T22:21:41.015Z,21.58
2023-04-22T22:24:13.350Z,21.51
2023-04-22T22:26:45.459Z,21.35
2023-04-22T22:29:17.446Z,21.52
2023-04-22T22:31:50.127Z,21.54
2023-04-22T22:34:22.111Z,21.67
2023-04-22T22:36:54.124Z,21.49
2023-04-22T22:39:27.071Z,21.48
2023-04-22T22:42:01.563Z,21.37
2023-04-22T22:44:34.249Z,21.28
2023-04-22T22:47:06.666Z,21.35
2023-04-22T22:49:38.739Z,21.34
2023-04-22T22:52:10.753Z,21.50
2023-04-22T22:54:43.722Z,21.48
2023-04-22T22:57:16.271Z,21.44
2023-04-22T22:59:49.414Z,21.45
2023-04-22T23:02:22.291Z,21.46
2023-04-22T23:04:54.476Z,21.42
2023-04-22T23:07:27.225Z,21.46
2023-04-22T23:09:58.924Z,21.42
2023-04-22T23:12:34.240Z,21.40
2023-04-22T23:15:06.223Z,21.36
2023-04-22T23:17:38.772Z,21.46
2023-04-22T23:20:14.725Z,21.34
2023-04-22T23:22:48.237Z,21.31
2023-04-22T23:25:22.675Z,21.30
2023-04-22T23:27:54.536Z,21.35
2023-04-22T23:30:28.892Z,21.34
2023-04-22T23:33:05.147Z,21.35
2023-04-22T23:35:39.495Z,21.31
2023-04-22T23:38:15.562Z,21.41
2023-04-22T23:40:48.236Z,21.38
2023-04-22T23:43:21.097Z,21.29
2023-04-22T23:45:53.033Z,21.27
2023-04-22T23:48:24.092Z,21.37
2023-04-22T23:50:56.819Z,21.31
2023-04-22T23:53:28.816Z,21.28
2023-04-22T23:56:04.081Z,21.27
2023-04-22T23:58:37.499Z,21.03
